Time;durP1;ratioP1;P1;durP2;ratioP2;P2;SDS_P1;SDS_P2;PMS_P1;PMS_P2;Temp;Humidity;BMP_temperature;BMP_pressure;BME280_temperature;BME280_humidity;BME280_pressure;Samples;Min_cycle;Max_cycle;Signal;HPM_P1;HPM_P2
2022/04/21 00:00:39;;;;;;;9.60;6.80;;;;;;;;;;5001882;28;20046;-76
2022/04/21 00:03:08;;;;;;;7.80;5.93;;;;;;;;;;5003323;28;20104;-76
2022/04/21 00:05:36;;;;;;;8.70;6.32;;;;;;;;;;5000661;28;20046;-77
2022/04/21 00:08:03;;;;;;;10.98;6.78;;;;;;;;;;5001625;28;20099;-77
2022/04/21 00:10:30;;;;;;;9.70;6.28;;;;;;;;;;5007480;28;20050;-77
2022/04/21 00:12:58;;;;;;;9.05;6.60;;;;;;;;;;5002826;28;20046;-77
2022/04/21 00:15:26;;;;;;;9.85;6.57;;;;;;;;;;5004196;28;20101;-76
2022/04/21 00:17:53;;;;;;;11.15;6.40;;;;;;;;;;5003462;28;20108;-77
2022/04/21 00:20:21;;;;;;;9.45;6.97;;;;;;;;;;5001961;28;20045;-76
2022/04/21 00:25:33;;;;;;;10.13;6.25;;;;;;;;;;5012428;28;20089;-77
2022/04/21 00:27:59;;;;;;;9.18;6.25;;;;;;;;;;5006325;28;20050;-76
2022/04/21 00:30:26;;;;;;;9.65;6.45;;;;;;;;;;4992423;28;20657;-76
2022/04/21 00:32:53;;;;;;;10.45;6.07;;;;;;;;;;4992379;28;20057;-77
2022/04/21 00:35:21;;;;;;;10.05;6.57;;;;;;;;;;4991900;28;20466;-76
2022/04/21 00:37:49;;;;;;;10.30;6.45;;;;;;;;;;4992415;28;20050;-76
2022/04/21 00:40:18;;;;;;;9.02;6.75;;;;;;;;;;4992262;28;20046;-76
2022/04/21 00:42:45;;;;;;;9.35;5.97;;;;;;;;;;4992271;28;20050;-77
2022/04/21 00:45:13;;;;;;;104.63;56.15;;;;;;;;;;4994942;28;20054;-76
2022/04/21 00:47:43;;;;;;;26.27;15.80;;;;;;;;;;5012147;28;20100;-76
2022/04/21 00:50:11;;;;;;;13.57;8.23;;;;;;;;;;5012340;28;20046;-77
2022/04/21 00:52:40;;;;;;;10.30;7.00;;;;;;;;;;5012079;28;20050;-77
2022/04/21 00:55:09;;;;;;;11.35;6.78;;;;;;;;;;5011217;28;20046;-76
2022/04/21 00:57:37;;;;;;;9.30;6.30;;;;;;;;;;5011652;28;20104;-77
2022/04/21 01:00:06;;;;;;;10.63;6.57;;;;;;;;;;5011556;28;20050;-77
2022/04/21 01:02:49;;;;;;;10.82;7.05;;;;;;;;;;5011465;28;20057;-77
2022/04/21 01:05:17;;;;;;;12.18;7.57;;;;;;;;;;5011075;28;20138;-76
2022/04/21 01:07:46;;;;;;;11.57;6.93;;;;;;;;;;5011359;28;20046;-76
2022/04/21 01:10:15;;;;;;;9.63;6.93;;;;;;;;;;5010981;28;20252;-76
2022/04/21 01:12:44;;;;;;;9.57;6.18;;;;;;;;;;5012019;28;20394;-77
2022/04/21 01:15:11;;;;;;;9.35;6.38;;;;;;;;;;5014847;28;20046;-76
2022/04/21 01:17:39;;;;;;;9.90;6.53;;;;;;;;;;5015158;28;20056;-78
2022/04/21 01:20:08;;;;;;;9.20;6.38;;;;;;;;;;5015128;28;20589;-77
2022/04/21 01:22:36;;;;;;;9.52;6.10;;;;;;;;;;5015363;28;20065;-77
2022/04/21 01:25:05;;;;;;;10.23;6.47;;;;;;;;;;5015403;28;20107;-76
2022/04/21 01:27:33;;;;;;;10.70;7.10;;;;;;;;;;5015955;28;20053;-75
2022/04/21 01:30:02;;;;;;;9.93;6.57;;;;;;;;;;5015043;28;20497;-77
2022/04/21 01:32:29;;;;;;;10.75;7.18;;;;;;;;;;5014616;28;20046;-77
2022/04/21 01:34:56;;;;;;;9.02;6.03;;;;;;;;;;5014552;28;20073;-76
2022/04/21 01:42:54;;;;;;;10.82;7.07;;;;;;;;;;5014630;28;20185;-78
2022/04/21 01:45:21;;;;;;;10.38;6.70;;;;;;;;;;5010099;28;20038;-78
2022/04/21 01:47:48;;;;;;;10.73;7.15;;;;;;;;;;4994859;28;20054;-77
2022/04/21 01:50:15;;;;;;;10.57;7.57;;;;;;;;;;4994750;28;20050;-78
2022/04/21 01:52:42;;;;;;;11.88;7.30;;;;;;;;;;4994726;28;20042;-77
2022/04/21 01:55:11;;;;;;;10.18;6.57;;;;;;;;;;4994878;28;20113;-78
2022/04/21 01:57:38;;;;;;;9.70;6.75;;;;;;;;;;4994504;28;20046;-77
2022/04/21 02:00:06;;;;;;;11.43;6.88;;;;;;;;;;4994570;28;20054;-77
2022/04/21 02:02:33;;;;;;;9.32;6.40;;;;;;;;;;4994421;28;20054;-77
2022/04/21 02:05:00;;;;;;;10.25;6.60;;;;;;;;;;4994275;28;20072;-77
2022/04/21 02:07:28;;;;;;;10.60;6.80;;;;;;;;;;4994395;28;20509;-76
2022/04/21 02:09:55;;;;;;;10.35;6.90;;;;;;;;;;4994406;28;20494;-76
2022/04/21 02:12:24;;;;;;;9.63;6.25;;;;;;;;;;4994628;28;20046;-77
2022/04/21 02:14:51;;;;;;;9.35;6.15;;;;;;;;;;4994523;28;20050;-77
2022/04/21 02:17:19;;;;;;;10.38;6.70;;;;;;;;;;4994913;28;20421;-76
2022/04/21 02:19:45;;;;;;;9.15;6.03;;;;;;;;;;5000901;28;20050;-76
2022/04/21 02:22:12;;;;;;;9.38;6.68;;;;;;;;;;5012322;28;20034;-77
2022/04/21 02:24:39;;;;;;;10.05;7.57;;;;;;;;;;5007160;28;20081;-76
2022/04/21 02:27:06;;;;;;;8.60;6.25;;;;;;;;;;5003391;28;20063;-77
2022/04/21 02:29:34;;;;;;;9.57;6.88;;;;;;;;;;4994618;28;20055;-76
2022/04/21 02:32:01;;;;;;;10.35;6.88;;;;;;;;;;4994785;28;20053;-76
2022/04/21 02:34:29;;;;;;;10.20;6.70;;;;;;;;;;4994383;28;20050;-76
2022/04/21 02:36:56;;;;;;;9.88;6.68;;;;;;;;;;4994133;28;20101;-77
2022/04/21 02:39:23;;;;;;;9.27;6.38;;;;;;;;;;4994631;28;20062;-76
2022/04/21 02:41:50;;;;;;;11.55;7.05;;;;;;;;;;4994328;28;20046;-77
2022/04/21 02:44:17;;;;;;;10.82;7.22;;;;;;;;;;4994408;28;20122;-76
2022/04/21 02:46:45;;;;;;;9.38;6.55;;;;;;;;;;5008863;28;20058;-77
2022/04/21 02:49:13;;;;;;;10.32;6.70;;;;;;;;;;5013459;28;20046;-77
2022/04/21 02:51:39;;;;;;;10.90;7.20;;;;;;;;;;5013744;28;20137;-77
2022/04/21 02:59:35;;;;;;;11.77;7.22;;;;;;;;;;5013175;28;20065;-77
2022/04/21 03:02:03;;;;;;;11.10;7.55;;;;;;;;;;5013250;28;20108;-76
2022/04/21 03:04:30;;;;;;;11.00;7.13;;;;;;;;;;5012974;28;20050;-76
2022/04/21 03:06:57;;;;;;;10.50;6.78;;;;;;;;;;5012870;28;20054;-77
2022/04/21 03:09:24;;;;;;;10.23;7.13;;;;;;;;;;5013570;28;20045;-76
2022/04/21 03:11:51;;;;;;;10.20;7.25;;;;;;;;;;5013500;28;20145;-76
2022/04/21 03:14:19;;;;;;;10.10;7.00;;;;;;;;;;5014158;28;20046;-77
2022/04/21 03:16:46;;;;;;;9.68;6.63;;;;;;;;;;5037768;28;20093;-76
2022/04/21 03:19:14;;;;;;;9.32;6.80;;;;;;;;;;5014313;28;20112;-77
2022/04/21 03:24:25;;;;;;;10.63;7.10;;;;;;;;;;5012841;28;20148;-75
2022/04/21 03:26:54;;;;;;;11.32;7.30;;;;;;;;;;5012570;28;20054;-77
2022/04/21 03:29:21;;;;;;;11.75;6.88;;;;;;;;;;5012472;28;20097;-76
2022/04/21 03:31:48;;;;;;;9.75;7.07;;;;;;;;;;5012927;28;20045;-77
2022/04/21 03:34:18;;;;;;;9.75;7.10;;;;;;;;;;5012912;28;20652;-76
2022/04/21 03:36:47;;;;;;;10.10;7.15;;;;;;;;;;5012188;28;20049;-76
2022/04/21 03:39:14;;;;;;;12.07;7.50;;;;;;;;;;5012980;28;20497;-76
2022/04/21 03:41:41;;;;;;;11.52;6.45;;;;;;;;;;5013922;28;20095;-77
2022/04/21 03:44:09;;;;;;;11.63;6.55;;;;;;;;;;5012253;28;20493;-76
2022/04/21 03:46:36;;;;;;;10.60;6.97;;;;;;;;;;4997993;28;20073;-77
2022/04/21 03:49:03;;;;;;;9.80;7.38;;;;;;;;;;4992807;28;20046;-77
2022/04/21 03:51:35;;;;;;;9.27;6.80;;;;;;;;;;4993169;28;20042;-77
2022/04/21 03:54:02;;;;;;;10.88;6.85;;;;;;;;;;4992431;28;20506;-77
2022/04/21 03:56:29;;;;;;;10.05;6.40;;;;;;;;;;4992582;28;20493;-77
2022/04/21 03:58:56;;;;;;;9.60;6.63;;;;;;;;;;4992706;28;20479;-76
2022/04/21 04:01:23;;;;;;;10.05;6.57;;;;;;;;;;4992505;28;20043;-75
2022/04/21 04:03:50;;;;;;;10.32;6.65;;;;;;;;;;4992532;28;20125;-75
2022/04/21 04:11:46;;;;;;;8.10;6.75;;;;;;;;;;4993082;28;20057;-76
2022/04/21 04:14:13;;;;;;;9.40;6.53;;;;;;;;;;4992946;28;20050;-76
2022/04/21 04:16:40;;;;;;;11.23;6.78;;;;;;;;;;4992787;28;20050;-76
2022/04/21 04:19:08;;;;;;;10.43;7.72;;;;;;;;;;4992748;28;20105;-76
2022/04/21 04:21:35;;;;;;;10.48;6.90;;;;;;;;;;4992999;28;20046;-76
2022/04/21 04:24:04;;;;;;;10.60;7.30;;;;;;;;;;4992967;28;20051;-75
2022/04/21 04:26:32;;;;;;;9.38;6.55;;;;;;;;;;4993223;28;20120;-76
2022/04/21 04:28:59;;;;;;;9.98;6.55;;;;;;;;;;4993079;28;20077;-76
2022/04/21 04:31:26;;;;;;;9.32;7.03;;;;;;;;;;4992676;28;20050;-76
2022/04/21 04:33:52;;;;;;;11.02;7.72;;;;;;;;;;4992240;28;20472;-77
2022/04/21 04:36:19;;;;;;;11.88;7.57;;;;;;;;;;4992251;28;20050;-75
2022/04/21 04:38:48;;;;;;;10.25;7.28;;;;;;;;;;4992729;28;20104;-76
2022/04/21 04:44:00;;;;;;;10.05;7.10;;;;;;;;;;4993042;28;20105;-77
2022/04/21 04:46:35;;;;;;;10.75;7.38;;;;;;;;;;5005787;28;20100;-77
2022/04/21 04:49:02;;;;;;;9.80;6.80;;;;;;;;;;5017651;28;20429;-77
2022/04/21 04:51:29;;;;;;;11.70;7.15;;;;;;;;;;5016553;28;20049;-77
2022/04/21 04:53:56;;;;;;;10.93;7.15;;;;;;;;;;5016124;28;20111;-77
2022/04/21 04:56:27;;;;;;;14.77;8.10;;;;;;;;;;5015818;28;20560;-76
2022/04/21 04:58:54;;;;;;;10.60;7.80;;;;;;;;;;5016125;28;20050;-77
2022/04/21 05:01:27;;;;;;;10.18;7.45;;;;;;;;;;5016143;28;20054;-77
2022/04/21 05:04:01;;;;;;;10.13;7.13;;;;;;;;;;5016376;28;20108;-76
2022/04/21 05:06:27;;;;;;;11.10;7.63;;;;;;;;;;5015512;28;20082;-76
2022/04/21 05:08:56;;;;;;;9.85;7.25;;;;;;;;;;5016237;28;20092;-77
2022/04/21 05:11:24;;;;;;;13.80;7.85;;;;;;;;;;5015320;28;20042;-77
2022/04/21 05:13:51;;;;;;;11.38;7.53;;;;;;;;;;5015368;28;20512;-77
2022/04/21 05:16:18;;;;;;;10.70;7.15;;;;;;;;;;5015883;28;20050;-76
2022/04/21 05:18:45;;;;;;;11.40;7.93;;;;;;;;;;5015896;28;20046;-76
2022/04/21 05:21:12;;;;;;;12.90;7.95;;;;;;;;;;5015131;28;20057;-76
2022/04/21 05:23:40;;;;;;;11.70;7.25;;;;;;;;;;5015616;28;20108;-77
2022/04/21 05:26:08;;;;;;;12.90;7.68;;;;;;;;;;5015520;28;20060;-77
2022/04/21 05:28:37;;;;;;;10.45;7.60;;;;;;;;;;5015555;28;20461;-76
2022/04/21 05:31:03;;;;;;;12.50;7.93;;;;;;;;;;5015724;28;20588;-77
2022/04/21 05:33:31;;;;;;;13.07;8.00;;;;;;;;;;5015673;28;20053;-78
2022/04/21 05:36:01;;;;;;;13.73;8.77;;;;;;;;;;5015398;28;20132;-76
2022/04/21 05:38:29;;;;;;;13.90;8.77;;;;;;;;;;5015040;28;20060;-76
2022/04/21 05:40:56;;;;;;;13.98;8.70;;;;;;;;;;5016965;28;20082;-77
2022/04/21 05:43:38;;;;;;;16.70;8.65;;;;;;;;;;5015484;28;20046;-76
2022/04/21 05:46:07;;;;;;;11.93;8.23;;;;;;;;;;5005598;28;20050;-76
2022/04/21 05:48:35;;;;;;;13.57;9.00;;;;;;;;;;5004804;28;20061;-78
2022/04/21 05:51:03;;;;;;;10.75;7.93;;;;;;;;;;5007408;28;20074;-76
2022/04/21 05:53:36;;;;;;;13.77;8.40;;;;;;;;;;5013090;28;20516;-76
2022/04/21 05:56:04;;;;;;;11.23;7.43;;;;;;;;;;4998096;28;20137;-77
2022/04/21 05:58:31;;;;;;;12.65;8.63;;;;;;;;;;4997240;28;20042;-76
2022/04/21 06:00:58;;;;;;;13.07;8.07;;;;;;;;;;4995985;28;20595;-76
2022/04/21 06:03:26;;;;;;;11.70;7.72;;;;;;;;;;4996464;28;20042;-77
2022/04/21 06:05:53;;;;;;;12.95;8.30;;;;;;;;;;4996704;28;20050;-78
2022/04/21 06:08:20;;;;;;;12.70;8.07;;;;;;;;;;5002990;28;20046;-76
2022/04/21 06:10:47;;;;;;;16.10;8.68;;;;;;;;;;5019039;28;20054;-76
2022/04/21 06:13:15;;;;;;;12.20;8.05;;;;;;;;;;5007780;28;20092;-77
2022/04/21 06:15:42;;;;;;;15.73;8.57;;;;;;;;;;4999203;28;20130;-76
2022/04/21 06:18:09;;;;;;;12.65;8.43;;;;;;;;;;4996385;28;20058;-78
2022/04/21 06:20:38;;;;;;;13.65;9.10;;;;;;;;;;4994930;28;20141;-77
2022/04/21 06:23:05;;;;;;;11.57;8.52;;;;;;;;;;4995901;28;20050;-77
2022/04/21 06:25:32;;;;;;;12.55;9.02;;;;;;;;;;4994803;28;20054;-76
2022/04/21 06:27:58;;;;;;;12.85;8.88;;;;;;;;;;4995295;28;20053;-76
2022/04/21 06:30:25;;;;;;;12.60;8.65;;;;;;;;;;4998866;28;20046;-77
2022/04/21 06:32:53;;;;;;;12.05;8.52;;;;;;;;;;4998562;28;20113;-77
2022/04/21 06:35:20;;;;;;;12.60;9.05;;;;;;;;;;4997279;28;20047;-76
2022/04/21 06:37:48;;;;;;;13.02;8.20;;;;;;;;;;4996578;28;20054;-76
2022/04/21 06:40:15;;;;;;;14.57;9.32;;;;;;;;;;4995471;28;20413;-76
2022/04/21 06:42:43;;;;;;;11.40;8.48;;;;;;;;;;4994051;28;20061;-76
2022/04/21 06:48:05;;;;;;;14.80;8.98;;;;;;;;;;5013846;28;20421;-77
2022/04/21 06:50:33;;;;;;;11.85;8.52;;;;;;;;;;5013307;28;20132;-76
2022/04/21 06:53:02;;;;;;;13.23;9.25;;;;;;;;;;5013574;28;20176;-77
2022/04/21 06:55:29;;;;;;;13.13;9.20;;;;;;;;;;5012995;28;20053;-77
2022/04/21 06:57:56;;;;;;;11.52;8.32;;;;;;;;;;5013217;28;20065;-76
2022/04/21 07:00:25;;;;;;;14.18;8.55;;;;;;;;;;5010423;28;20108;-77
2022/04/21 07:02:53;;;;;;;16.77;9.73;;;;;;;;;;5004433;28;20417;-77
2022/04/21 07:05:23;;;;;;;12.77;9.10;;;;;;;;;;5006009;28;20042;-77
2022/04/21 07:07:50;;;;;;;12.82;8.90;;;;;;;;;;4996500;28;422311;-76
2022/04/21 07:10:19;;;;;;;13.60;9.27;;;;;;;;;;5005611;28;20039;-76
2022/04/21 07:12:47;;;;;;;13.23;8.68;;;;;;;;;;5003349;28;20077;-77
2022/04/21 07:15:14;;;;;;;12.48;8.82;;;;;;;;;;4997541;28;20046;-76
2022/04/21 07:17:41;;;;;;;13.10;8.98;;;;;;;;;;5001400;28;20096;-75
2022/04/21 07:20:10;;;;;;;13.00;9.70;;;;;;;;;;5014966;28;20144;-77
2022/04/21 07:22:37;;;;;;;13.95;9.55;;;;;;;;;;4999132;28;20438;-76
2022/04/21 07:25:08;;;;;;;13.80;9.07;;;;;;;;;;4995790;28;20104;-75
2022/04/21 07:27:37;;;;;;;13.52;9.95;;;;;;;;;;5009534;28;20060;-75
2022/04/21 07:30:06;;;;;;;14.40;9.18;;;;;;;;;;5009563;28;20137;-76
2022/04/21 07:32:32;;;;;;;12.52;8.43;;;;;;;;;;5003290;28;20440;-76
2022/04/21 07:35:00;;;;;;;13.18;9.00;;;;;;;;;;5000021;28;20049;-77
2022/04/21 07:37:27;;;;;;;14.43;8.98;;;;;;;;;;4998463;28;20053;-76
2022/04/21 07:39:54;;;;;;;15.35;9.55;;;;;;;;;;5012320;28;20050;-78
2022/04/21 07:42:22;;;;;;;14.10;9.23;;;;;;;;;;5011719;28;20050;-76
2022/04/21 07:44:50;;;;;;;12.38;8.27;;;;;;;;;;5012195;28;20049;-77
2022/04/21 07:47:17;;;;;;;12.68;9.10;;;;;;;;;;4994317;28;20141;-77
2022/04/21 07:49:48;;;;;;;12.05;9.45;;;;;;;;;;4996403;28;20047;-76
2022/04/21 07:55:17;;;;;;;10.88;8.05;;;;;;;;;;4995470;28;20057;-77
2022/04/21 07:57:45;;;;;;;11.10;7.97;;;;;;;;;;4994999;28;20635;-76
2022/04/21 08:00:15;;;;;;;13.93;9.45;;;;;;;;;;5005914;28;20042;-77
2022/04/21 08:02:45;;;;;;;12.48;8.50;;;;;;;;;;5016284;28;20046;-77
2022/04/21 08:05:13;;;;;;;15.80;8.98;;;;;;;;;;5014418;28;20054;-78
2022/04/21 08:07:40;;;;;;;14.20;9.95;;;;;;;;;;5013070;28;20148;-77
2022/04/21 08:10:09;;;;;;;15.23;10.00;;;;;;;;;;5014984;28;20054;-80
2022/04/21 08:12:40;;;;;;;15.02;9.25;;;;;;;;;;5014781;28;20053;-76
2022/04/21 08:15:08;;;;;;;12.70;8.82;;;;;;;;;;5013848;28;20046;-77
2022/04/21 08:17:37;;;;;;;12.18;8.32;;;;;;;;;;5013836;28;20045;-77
2022/04/21 08:20:06;;;;;;;15.27;8.30;;;;;;;;;;5015280;28;20067;-77
2022/04/21 08:22:33;;;;;;;12.43;8.80;;;;;;;;;;5017424;28;20049;-75
2022/04/21 08:33:16;;;;;;;12.02;8.30;;;;;;;;;;5015425;28;20185;-76
2022/04/21 08:35:44;;;;;;;13.13;8.50;;;;;;;;;;5019005;28;20049;-75
2022/04/21 08:38:11;;;;;;;13.88;8.82;;;;;;;;;;5017055;28;20056;-76
2022/04/21 08:40:38;;;;;;;19.23;10.05;;;;;;;;;;5016522;28;20045;-77
2022/04/21 08:43:13;;;;;;;13.80;8.80;;;;;;;;;;5015928;28;20076;-76
2022/04/21 08:45:43;;;;;;;15.68;10.40;;;;;;;;;;5012696;28;20050;-77
2022/04/21 08:48:12;;;;;;;12.93;9.45;;;;;;;;;;5013814;28;20057;-77
2022/04/21 08:50:41;;;;;;;11.90;8.57;;;;;;;;;;5013568;28;20056;-77
2022/04/21 08:53:10;;;;;;;13.57;10.07;;;;;;;;;;5015776;28;20272;-78
2022/04/21 08:55:37;;;;;;;13.98;8.75;;;;;;;;;;5013577;28;20049;-78
2022/04/21 08:58:04;;;;;;;14.23;8.98;;;;;;;;;;5013195;28;20073;-77
2022/04/21 09:00:32;;;;;;;13.13;7.95;;;;;;;;;;5015071;28;20104;-78
2022/04/21 09:02:59;;;;;;;14.75;8.75;;;;;;;;;;5014655;28;20042;-75
2022/04/21 09:05:28;;;;;;;12.93;8.38;;;;;;;;;;5018179;28;20107;-77
2022/04/21 09:07:58;;;;;;;15.18;9.38;;;;;;;;;;5036583;28;20041;-76
2022/04/21 09:10:27;;;;;;;15.88;9.98;;;;;;;;;;5026587;28;20050;-77
2022/04/21 09:12:56;;;;;;;15.57;9.50;;;;;;;;;;5014418;28;20136;-77
2022/04/21 09:15:25;;;;;;;14.98;8.93;;;;;;;;;;5014897;28;20668;-77
2022/04/21 09:17:53;;;;;;;17.63;12.55;;;;;;;;;;5014865;28;20061;-78
2022/04/21 09:20:22;;;;;;;15.20;9.50;;;;;;;;;;5018742;28;20045;-76
2022/04/21 09:22:52;;;;;;;13.18;8.85;;;;;;;;;;5023776;28;20101;-75
2022/04/21 09:25:21;;;;;;;15.50;9.38;;;;;;;;;;5019576;28;20101;-76
2022/04/21 09:27:49;;;;;;;12.32;8.48;;;;;;;;;;5017683;28;20050;-76
2022/04/21 09:30:17;;;;;;;17.52;11.45;;;;;;;;;;5012333;28;20172;-77
2022/04/21 09:32:52;;;;;;;13.77;8.82;;;;;;;;;;5000985;28;20053;-75
2022/04/21 09:35:20;;;;;;;12.00;8.77;;;;;;;;;;4994158;28;20569;-77
2022/04/21 09:37:49;;;;;;;14.48;9.20;;;;;;;;;;5005842;28;20108;-74
2022/04/21 09:40:22;;;;;;;14.80;8.55;;;;;;;;;;5016366;28;20562;-75
2022/04/21 09:42:57;;;;;;;12.13;9.15;;;;;;;;;;5015704;28;20054;-76
2022/04/21 09:48:18;;;;;;;11.88;8.45;;;;;;;;;;5019479;28;20056;-75
2022/04/21 09:50:49;;;;;;;14.80;9.07;;;;;;;;;;5023858;28;20415;-77
2022/04/21 09:53:19;;;;;;;13.75;9.13;;;;;;;;;;5017578;28;20050;-76
2022/04/21 09:55:49;;;;;;;9.60;7.55;;;;;;;;;;5017083;28;20046;-76
2022/04/21 09:58:17;;;;;;;11.33;8.13;;;;;;;;;;5015947;28;20050;-75
2022/04/21 10:00:45;;;;;;;12.43;8.32;;;;;;;;;;5016263;28;20136;-77
2022/04/21 10:03:13;;;;;;;10.77;7.80;;;;;;;;;;5015980;28;20112;-79
2022/04/21 10:05:41;;;;;;;12.20;7.72;;;;;;;;;;5015789;28;20104;-76
2022/04/21 10:08:09;;;;;;;12.93;8.30;;;;;;;;;;5014198;28;20049;-76
2022/04/21 10:10:37;;;;;;;12.43;8.05;;;;;;;;;;5038100;22;20049;-78
2022/04/21 10:13:07;;;;;;;10.88;8.20;;;;;;;;;;5036748;28;20049;-78
2022/04/21 10:15:35;;;;;;;10.77;8.00;;;;;;;;;;5036149;28;20132;-78
2022/04/21 10:18:02;;;;;;;10.35;7.40;;;;;;;;;;5036614;28;20573;-78
2022/04/21 10:20:32;;;;;;;11.13;7.93;;;;;;;;;;5036096;28;20046;-78
2022/04/21 10:23:01;;;;;;;13.35;8.68;;;;;;;;;;5035850;28;20104;-78
2022/04/21 10:25:35;;;;;;;9.80;7.57;;;;;;;;;;5035188;28;20561;-79
2022/04/21 10:28:02;;;;;;;10.52;7.55;;;;;;;;;;5038414;28;20041;-78
2022/04/21 10:30:30;;;;;;;11.10;7.07;;;;;;;;;;5035189;28;20099;-77
2022/04/21 10:32:58;;;;;;;13.80;7.72;;;;;;;;;;5034894;28;20562;-79
2022/04/21 10:35:58;;;;;;;9.90;6.70;;;;;;;;;;5036732;28;20103;-78
2022/04/21 10:38:25;;;;;;;10.63;7.47;;;;;;;;;;4971280;28;20050;-77
2022/04/21 10:41:00;;;;;;;10.68;7.38;;;;;;;;;;4970903;28;20105;-76
2022/04/21 10:44:10;;;;;;;11.18;8.55;;;;;;;;;;5001673;28;20535;-76
2022/04/21 10:46:38;;;;;;;10.45;7.07;;;;;;;;;;5025841;28;20107;-77
2022/04/21 10:49:05;;;;;;;9.88;7.57;;;;;;;;;;5032747;28;20041;-77
2022/04/21 10:58:52;;;;;;;9.57;6.65;;;;;;;;;;5038041;28;20133;-79
2022/04/21 11:01:34;;;;;;;13.15;7.80;;;;;;;;;;5036675;28;20091;-79
2022/04/21 11:04:22;;;;;;;10.18;7.65;;;;;;;;;;5037724;28;20061;-79
2022/04/21 11:06:51;;;;;;;13.00;8.82;;;;;;;;;;5036825;28;20045;-79
2022/04/21 11:09:38;;;;;;;12.27;9.05;;;;;;;;;;5037305;28;20056;-78
2022/04/21 11:12:06;;;;;;;16.55;8.07;;;;;;;;;;5037229;28;20512;-79
2022/04/21 11:14:34;;;;;;;12.05;7.78;;;;;;;;;;5037259;28;20166;-79
2022/04/21 11:17:02;;;;;;;10.00;6.90;;;;;;;;;;5041303;28;20046;-79
2022/04/21 11:19:40;;;;;;;11.02;7.55;;;;;;;;;;5036512;28;20061;-78
2022/04/21 11:22:08;;;;;;;10.63;7.93;;;;;;;;;;5053557;28;20053;-77
2022/04/21 11:25:04;;;;;;;10.73;8.35;;;;;;;;;;5049306;28;20535;-78
2022/04/21 11:27:34;;;;;;;8.68;6.68;;;;;;;;;;5037983;28;20503;-80
2022/04/21 11:30:07;;;;;;;9.18;7.00;;;;;;;;;;5038348;28;20068;-79
2022/04/21 11:32:34;;;;;;;9.35;7.40;;;;;;;;;;5036729;28;20072;-79
2022/04/21 11:35:05;;;;;;;11.27;7.30;;;;;;;;;;5039882;28;20068;-78
2022/04/21 11:37:52;;;;;;;10.32;7.60;;;;;;;;;;5046589;28;20065;-78
2022/04/21 11:40:24;;;;;;;10.25;7.68;;;;;;;;;;5036151;28;20111;-77
2022/04/21 11:42:52;;;;;;;10.93;7.28;;;;;;;;;;5032433;28;20057;-76
2022/04/21 11:45:23;;;;;;;11.65;7.10;;;;;;;;;;5028303;28;20045;-76
2022/04/21 11:47:50;;;;;;;9.23;6.95;;;;;;;;;;5014514;28;20428;-79
2022/04/21 11:50:23;;;;;;;14.95;7.18;;;;;;;;;;5006382;28;20042;-78
2022/04/21 11:52:53;;;;;;;10.05;6.82;;;;;;;;;;5013330;28;20120;-77
2022/04/21 11:55:25;;;;;;;9.35;7.22;;;;;;;;;;5017216;28;20107;-77
2022/04/21 11:57:52;;;;;;;9.52;7.20;;;;;;;;;;5020125;28;20073;-77
2022/04/21 12:08:32;;;;;;;9.75;6.10;;;;;;;;;;5014148;28;20061;-78
2022/04/21 12:10:59;;;;;;;10.27;7.15;;;;;;;;;;5014384;28;20580;-76
2022/04/21 12:13:26;;;;;;;11.55;8.35;;;;;;;;;;5015057;28;20112;-78
2022/04/21 12:15:53;;;;;;;10.10;6.95;;;;;;;;;;5014541;28;20058;-77
2022/04/21 12:18:20;;;;;;;10.57;7.30;;;;;;;;;;5005914;28;20575;-77
2022/04/21 12:20:55;;;;;;;9.13;6.72;;;;;;;;;;5014598;28;20053;-78
2022/04/21 12:23:27;;;;;;;9.27;6.35;;;;;;;;;;5015983;28;20116;-78
2022/04/21 12:25:57;;;;;;;8.82;6.22;;;;;;;;;;5017692;28;20088;-78
2022/04/21 12:28:24;;;;;;;8.57;6.80;;;;;;;;;;5020217;28;20464;-77
2022/04/21 12:30:51;;;;;;;8.98;6.65;;;;;;;;;;5013262;28;20073;-78
2022/04/21 12:33:18;;;;;;;8.23;7.00;;;;;;;;;;5011884;28;20416;-77
2022/04/21 12:35:49;;;;;;;8.90;5.90;;;;;;;;;;5012554;28;20057;-78
2022/04/21 12:41:04;;;;;;;8.70;6.93;;;;;;;;;;5013569;28;20069;-78
2022/04/21 12:43:32;;;;;;;8.30;6.20;;;;;;;;;;5014610;28;20058;-78
2022/04/21 12:45:59;;;;;;;9.32;6.80;;;;;;;;;;5004368;28;20283;-78
2022/04/21 12:48:28;;;;;;;8.70;6.72;;;;;;;;;;4999783;28;20104;-78
2022/04/21 12:50:57;;;;;;;8.25;6.28;;;;;;;;;;5014037;28;20049;-79
2022/04/21 12:53:30;;;;;;;9.93;6.82;;;;;;;;;;5012512;28;20070;-77
2022/04/21 12:56:09;;;;;;;9.55;7.68;;;;;;;;;;5011347;28;20053;-77
2022/04/21 12:58:36;;;;;;;8.45;6.72;;;;;;;;;;5011651;28;20501;-78
2022/04/21 13:01:05;;;;;;;9.32;6.68;;;;;;;;;;5013897;28;20141;-77
2022/04/21 13:03:32;;;;;;;11.52;6.82;;;;;;;;;;5014620;28;20069;-79
2022/04/21 13:06:00;;;;;;;8.18;6.18;;;;;;;;;;5009462;28;20073;-78
2022/04/21 13:08:29;;;;;;;7.63;6.13;;;;;;;;;;4975177;28;20061;-78
2022/04/21 13:10:58;;;;;;;9.65;6.65;;;;;;;;;;4998179;28;20058;-79
2022/04/21 13:13:26;;;;;;;8.32;5.95;;;;;;;;;;4997894;28;20113;-79
2022/04/21 13:15:53;;;;;;;7.82;6.05;;;;;;;;;;4998115;28;20074;-76
2022/04/21 13:18:20;;;;;;;7.82;5.97;;;;;;;;;;4998039;28;20073;-78
2022/04/21 13:23:32;;;;;;;8.60;6.60;;;;;;;;;;4995609;28;20469;-77
2022/04/21 13:26:00;;;;;;;8.20;6.90;;;;;;;;;;4998232;28;20104;-78
2022/04/21 13:28:27;;;;;;;7.75;6.55;;;;;;;;;;4998192;28;20054;-78
2022/04/21 13:33:34;;;;;;;7.90;6.07;;;;;;;;;;5000761;28;20042;-78
2022/04/21 13:36:02;;;;;;;7.72;6.40;;;;;;;;;;4997906;28;20105;-79
2022/04/21 13:38:29;;;;;;;7.13;5.68;;;;;;;;;;4998749;28;20058;-78
2022/04/21 13:40:57;;;;;;;8.27;6.75;;;;;;;;;;4997385;28;20078;-78
2022/04/21 13:43:26;;;;;;;9.07;7.32;;;;;;;;;;4997710;28;20046;-79
2022/04/21 13:45:53;;;;;;;8.15;6.50;;;;;;;;;;4989683;28;20047;-78
2022/04/21 13:48:20;;;;;;;7.88;6.53;;;;;;;;;;4977802;28;20160;-78
2022/04/21 13:50:47;;;;;;;8.38;6.40;;;;;;;;;;4978945;28;20054;-78
2022/04/21 13:53:14;;;;;;;7.32;6.22;;;;;;;;;;4981122;28;20051;-79
2022/04/21 13:55:40;;;;;;;9.55;7.55;;;;;;;;;;4977401;28;20047;-79
2022/04/21 13:58:09;;;;;;;9.63;6.80;;;;;;;;;;4976896;28;20498;-79
2022/04/21 14:00:40;;;;;;;7.32;6.25;;;;;;;;;;4978010;28;20050;-78
2022/04/21 14:03:07;;;;;;;8.30;6.70;;;;;;;;;;4976927;28;20054;-79
2022/04/21 14:05:36;;;;;;;9.60;7.47;;;;;;;;;;4977500;28;20145;-79
2022/04/21 14:08:04;;;;;;;8.23;7.20;;;;;;;;;;4977472;28;20517;-77
2022/04/21 14:10:31;;;;;;;8.98;7.00;;;;;;;;;;4979644;28;20059;-79
2022/04/21 14:12:58;;;;;;;9.45;7.63;;;;;;;;;;4982692;28;20141;-76
2022/04/21 14:15:26;;;;;;;9.38;7.60;;;;;;;;;;4984270;28;20118;-78
2022/04/21 14:17:52;;;;;;;8.23;6.47;;;;;;;;;;4984704;28;20051;-78
2022/04/21 14:20:19;;;;;;;8.60;6.82;;;;;;;;;;4982219;28;20442;-78
2022/04/21 14:22:46;;;;;;;7.55;6.57;;;;;;;;;;4982585;28;20082;-78
2022/04/21 14:25:14;;;;;;;7.85;6.75;;;;;;;;;;4981727;28;20050;-78
2022/04/21 14:27:40;;;;;;;7.32;5.88;;;;;;;;;;4982212;28;20034;-78
2022/04/21 14:30:09;;;;;;;8.65;7.28;;;;;;;;;;4983455;28;20113;-78
2022/04/21 14:32:37;;;;;;;8.80;7.00;;;;;;;;;;4978404;28;20055;-79
2022/04/21 14:35:04;;;;;;;9.18;6.97;;;;;;;;;;4980426;28;20047;-78
2022/04/21 14:45:44;;;;;;;9.93;6.30;;;;;;;;;;4984845;28;20134;-80
2022/04/21 14:48:12;;;;;;;7.95;6.07;;;;;;;;;;4997093;28;20046;-77
2022/04/21 14:50:39;;;;;;;7.57;6.78;;;;;;;;;;4998118;28;20054;-78
2022/04/21 14:53:06;;;;;;;7.88;6.78;;;;;;;;;;4997792;28;20576;-82
2022/04/21 14:55:33;;;;;;;6.95;6.07;;;;;;;;;;4996895;28;20046;-79
2022/04/21 14:58:00;;;;;;;9.30;7.55;;;;;;;;;;4998296;28;20050;-79
2022/04/21 15:00:27;;;;;;;8.40;7.10;;;;;;;;;;4998595;28;20117;-79
2022/04/21 15:02:54;;;;;;;8.85;7.38;;;;;;;;;;4998366;28;20092;-78
2022/04/21 15:05:22;;;;;;;10.52;8.55;;;;;;;;;;5007372;28;20058;-77
2022/04/21 15:07:49;;;;;;;8.55;6.88;;;;;;;;;;5014043;28;20054;-77
2022/04/21 15:10:16;;;;;;;8.20;7.28;;;;;;;;;;5013010;28;20046;-77
2022/04/21 15:12:45;;;;;;;8.25;7.20;;;;;;;;;;5012828;28;20062;-78
2022/04/21 15:15:12;;;;;;;9.05;7.70;;;;;;;;;;5002764;28;20057;-78
2022/04/21 15:17:39;;;;;;;8.52;7.63;;;;;;;;;;4999125;28;20394;-79
2022/04/21 15:20:07;;;;;;;8.15;6.93;;;;;;;;;;4999201;28;20473;-79
2022/04/21 15:22:35;;;;;;;10.13;7.50;;;;;;;;;;4998422;28;20053;-79
2022/04/21 15:25:05;;;;;;;7.43;6.32;;;;;;;;;;4995680;28;20058;-75
2022/04/21 15:27:31;;;;;;;7.22;6.07;;;;;;;;;;4999354;28;20111;-76
2022/04/21 15:29:58;;;;;;;8.43;7.55;;;;;;;;;;4986633;28;20046;-78
2022/04/21 15:32:25;;;;;;;11.10;7.88;;;;;;;;;;4975774;28;20414;-79
2022/04/21 15:34:52;;;;;;;8.35;7.20;;;;;;;;;;4978734;28;20137;-79
2022/04/21 15:37:18;;;;;;;8.93;7.68;;;;;;;;;;4989273;28;20051;-79
2022/04/21 15:39:48;;;;;;;9.73;8.43;;;;;;;;;;4982418;28;20113;-78
2022/04/21 15:42:15;;;;;;;7.45;6.60;;;;;;;;;;4977878;28;20058;-80
2022/04/21 15:44:42;;;;;;;7.93;6.63;;;;;;;;;;4977491;28;20494;-79
2022/04/21 15:47:09;;;;;;;7.90;6.80;;;;;;;;;;4996482;28;20051;-79
2022/04/21 15:49:36;;;;;;;8.77;7.60;;;;;;;;;;4997065;28;20497;-78
2022/04/21 15:52:03;;;;;;;7.90;6.32;;;;;;;;;;4997131;28;20045;-79
2022/04/21 16:00:00;;;;;;;7.45;5.88;;;;;;;;;;4996888;28;20116;-78